Time;durP1;ratioP1;P1;durP2;ratioP2;P2;SDS_P1;SDS_P2;PMS_P1;PMS_P2;Temp;Humidity;BMP_temperature;BMP_pressure;BME280_temperature;BME280_humidity;BME280_pressure;Samples;Min_cycle;Max_cycle;Signal;HPM_P1;HPM_P2
2021/07/04 00:01:57;;;;;;;3.20;2.90;;;25.70;50.20;;;;;;5038716;28;20395;-65
2021/07/04 00:04:23;;;;;;;3.10;2.67;;;25.70;50.20;;;;;;5023116;28;20638;-65
2021/07/04 00:06:49;;;;;;;3.20;2.75;;;25.70;50.10;;;;;;5023544;28;20387;-65
2021/07/04 00:09:15;;;;;;;3.70;2.87;;;25.60;50.10;;;;;;5022491;28;20402;-65
2021/07/04 00:11:41;;;;;;;3.40;2.92;;;25.60;50.10;;;;;;5023418;28;21506;-65
2021/07/04 00:14:06;;;;;;;3.10;2.80;;;25.70;50.20;;;;;;5023009;28;20886;-66
2021/07/04 00:16:32;;;;;;;3.23;2.93;;;25.70;50.10;;;;;;5023199;28;20395;-66
2021/07/04 00:18:59;;;;;;;3.40;2.90;;;25.60;50.10;;;;;;5023346;28;20413;-65
2021/07/04 00:21:24;;;;;;;3.15;2.65;;;25.70;50.10;;;;;;5022971;28;20411;-65
2021/07/04 00:23:50;;;;;;;3.23;2.90;;;25.70;50.20;;;;;;5023149;28;20437;-65
2021/07/04 00:26:16;;;;;;;3.70;3.00;;;25.60;50.10;;;;;;5022529;28;20387;-65
2021/07/04 00:28:42;;;;;;;3.22;2.75;;;25.70;50.20;;;;;;5023245;28;20859;-68
2021/07/04 00:31:07;;;;;;;3.08;2.78;;;25.60;50.20;;;;;;5023034;28;20386;-65
2021/07/04 00:33:33;;;;;;;3.17;2.88;;;25.60;50.20;;;;;;5022371;28;20427;-69
2021/07/04 00:35:59;;;;;;;3.38;2.60;;;25.60;50.20;;;;;;5016859;28;20474;-65
2021/07/04 00:38:25;;;;;;;3.20;2.80;;;25.70;50.20;;;;;;5019868;28;20395;-66
2021/07/04 00:40:51;;;;;;;3.40;2.80;;;25.60;50.10;;;;;;5016723;28;20405;-66
2021/07/04 00:43:17;;;;;;;3.80;2.80;;;25.60;50.10;;;;;;5018480;28;20480;-65
2021/07/04 00:45:43;;;;;;;3.70;2.97;;;25.60;50.10;;;;;;5016948;28;20443;-66
2021/07/04 00:48:09;;;;;;;3.25;2.85;;;25.60;50.10;;;;;;5019420;28;20398;-65
2021/07/04 00:50:35;;;;;;;3.30;2.60;;;25.60;50.70;;;;;;5022608;28;20402;-65
2021/07/04 00:53:02;;;;;;;3.60;2.90;;;25.60;50.10;;;;;;5022562;28;20453;-65
2021/07/04 00:55:28;;;;;;;2.90;2.60;;;25.60;50.30;;;;;;5021337;28;20410;-66
2021/07/04 00:57:54;;;;;;;3.17;2.50;;;25.60;50.60;;;;;;5021595;28;20475;-67
2021/07/04 01:00:23;;;;;;;3.42;2.53;;;25.60;50.60;;;;;;5021497;28;20494;-65
2021/07/04 01:02:49;;;;;;;3.17;2.53;;;25.60;50.50;;;;;;5020669;28;20825;-65
2021/07/04 01:05:22;;;;;;;2.80;2.35;;;25.60;50.50;;;;;;5021408;28;20393;-65
2021/07/04 01:07:48;;;;;;;3.38;2.42;;;25.70;50.60;;;;;;5037938;28;20474;-65
2021/07/04 01:10:17;;;;;;;2.80;2.50;;;25.60;50.60;;;;;;5022540;28;20474;-65
2021/07/04 01:12:47;;;;;;;2.90;2.50;;;25.70;50.70;;;;;;5022878;28;20744;-66
2021/07/04 01:15:17;;;;;;;3.40;2.80;;;25.60;50.60;;;;;;5023033;28;20387;-66
2021/07/04 01:17:43;;;;;;;3.80;2.58;;;25.60;50.60;;;;;;5023333;28;20395;-65
2021/07/04 01:20:11;;;;;;;3.58;2.88;;;25.70;50.50;;;;;;5021892;28;20406;-65
2021/07/04 01:22:38;;;;;;;3.40;2.63;;;25.70;50.50;;;;;;5022687;28;20442;-65
2021/07/04 01:25:06;;;;;;;3.40;2.80;;;25.70;50.40;;;;;;5021562;28;20438;-66
2021/07/04 01:27:32;;;;;;;3.00;2.60;;;25.60;50.40;;;;;;5022888;28;20387;-65
2021/07/04 01:29:58;;;;;;;3.92;2.63;;;25.60;50.40;;;;;;5022747;28;21025;-67
2021/07/04 01:32:23;;;;;;;2.80;2.50;;;25.60;50.40;;;;;;5022710;28;20389;-66
2021/07/04 01:34:49;;;;;;;3.60;2.90;;;25.60;50.40;;;;;;5022294;28;20957;-65
2021/07/04 01:37:16;;;;;;;3.17;2.60;;;25.70;50.40;;;;;;5022785;28;20481;-65
2021/07/04 01:39:42;;;;;;;3.70;2.90;;;25.60;50.30;;;;;;5022323;28;20391;-66
2021/07/04 01:42:07;;;;;;;2.97;2.67;;;25.70;50.40;;;;;;5021957;28;21202;-65
2021/07/04 01:44:33;;;;;;;3.47;2.75;;;25.60;50.30;;;;;;5021229;28;20398;-65
2021/07/04 01:46:59;;;;;;;2.90;2.55;;;25.60;50.40;;;;;;5022594;28;20390;-65
2021/07/04 01:49:25;;;;;;;3.10;2.60;;;25.60;50.40;;;;;;5021209;28;20456;-65
2021/07/04 01:51:54;;;;;;;3.65;2.65;;;25.60;50.40;;;;;;5022184;28;20780;-65
2021/07/04 01:54:20;;;;;;;3.10;2.75;;;25.60;50.40;;;;;;5021929;28;20418;-65
2021/07/04 01:56:45;;;;;;;3.25;2.60;;;25.60;50.30;;;;;;5022484;28;20759;-66
2021/07/04 01:59:11;;;;;;;3.03;2.73;;;25.60;50.30;;;;;;5020509;28;20399;-65
2021/07/04 02:01:37;;;;;;;3.08;2.65;;;25.60;50.30;;;;;;5021179;28;20388;-65
2021/07/04 02:04:02;;;;;;;3.13;2.43;;;25.60;50.40;;;;;;5021754;28;20422;-65
2021/07/04 02:06:28;;;;;;;2.85;2.50;;;25.60;50.40;;;;;;5020879;28;20388;-65
2021/07/04 02:08:54;;;;;;;3.10;2.70;;;25.60;50.40;;;;;;5020809;28;20414;-65
2021/07/04 02:11:19;;;;;;;2.92;2.63;;;25.60;50.40;;;;;;5022308;28;20398;-65
2021/07/04 02:13:45;;;;;;;3.05;2.58;;;25.60;50.50;;;;;;5022096;28;20775;-65
2021/07/04 02:16:10;;;;;;;3.20;2.70;;;25.60;50.50;;;;;;5036936;28;20437;-66
2021/07/04 02:18:36;;;;;;;3.00;2.70;;;25.60;50.50;;;;;;5022112;28;20486;-66
2021/07/04 02:21:02;;;;;;;3.20;2.70;;;25.60;50.50;;;;;;5020575;28;20489;-66
2021/07/04 02:23:32;;;;;;;2.90;2.58;;;25.60;50.50;;;;;;5021900;28;20513;-65
2021/07/04 02:25:58;;;;;;;3.22;2.80;;;25.50;50.50;;;;;;5021948;28;20392;-65
2021/07/04 02:28:29;;;;;;;3.08;2.70;;;25.50;50.50;;;;;;5021489;28;20430;-65
2021/07/04 02:30:56;;;;;;;3.10;2.80;;;25.50;50.40;;;;;;5021755;28;20391;-65
2021/07/04 02:33:23;;;;;;;3.03;2.72;;;25.60;50.50;;;;;;5024947;28;20724;-65
2021/07/04 02:35:52;;;;;;;3.47;2.58;;;25.60;50.40;;;;;;5026050;28;20444;-65
2021/07/04 02:38:18;;;;;;;3.00;2.53;;;25.60;50.40;;;;;;5024940;28;20395;-65
2021/07/04 02:40:44;;;;;;;2.87;2.57;;;25.60;50.50;;;;;;5024679;28;20478;-66
2021/07/04 02:43:12;;;;;;;3.20;2.90;;;25.60;50.50;;;;;;5025043;28;20477;-65
2021/07/04 02:45:39;;;;;;;2.97;2.65;;;25.60;50.40;;;;;;5025521;28;20466;-65
2021/07/04 02:48:07;;;;;;;2.95;2.60;;;25.60;50.40;;;;;;5024919;28;20382;-65
2021/07/04 02:50:33;;;;;;;3.10;2.78;;;25.50;50.40;;;;;;5025094;28;20415;-65
2021/07/04 02:52:59;;;;;;;3.13;2.58;;;25.50;50.30;;;;;;5025176;28;20477;-65
2021/07/04 02:55:24;;;;;;;3.83;2.80;;;25.50;50.30;;;;;;5025183;28;20395;-66
2021/07/04 02:57:51;;;;;;;3.00;2.40;;;25.50;50.40;;;;;;5025118;28;20414;-65
2021/07/04 03:00:20;;;;;;;2.95;2.60;;;25.60;50.50;;;;;;5024388;28;20401;-65
2021/07/04 03:02:46;;;;;;;2.70;2.50;;;25.50;50.50;;;;;;5024937;28;20411;-66
2021/07/04 03:05:12;;;;;;;2.80;2.50;;;25.50;50.50;;;;;;5024999;28;20406;-66
2021/07/04 03:07:38;;;;;;;3.10;2.60;;;25.50;50.50;;;;;;5025079;28;21180;-66
2021/07/04 03:10:10;;;;;;;3.17;2.60;;;25.50;50.50;;;;;;5024858;28;20395;-65
2021/07/04 03:12:36;;;;;;;3.05;2.67;;;25.50;50.50;;;;;;5025062;28;20395;-67
2021/07/04 03:15:03;;;;;;;2.85;2.55;;;25.50;50.50;;;;;;5025038;28;20391;-65
2021/07/04 03:17:28;;;;;;;3.58;2.80;;;25.50;50.50;;;;;;5024700;28;20399;-66
2021/07/04 03:19:54;;;;;;;3.22;2.72;;;25.50;50.50;;;;;;5024586;28;20902;-65
2021/07/04 03:22:20;;;;;;;2.83;2.40;;;25.50;50.50;;;;;;5024238;28;20399;-66
2021/07/04 03:24:45;;;;;;;3.22;2.60;;;25.50;50.50;;;;;;5024628;28;20884;-65
2021/07/04 03:27:11;;;;;;;3.20;2.50;;;25.50;50.60;;;;;;5024589;28;20926;-65
2021/07/04 03:29:37;;;;;;;3.22;2.67;;;25.50;50.60;;;;;;5025103;28;21012;-66
2021/07/04 03:32:04;;;;;;;3.13;2.70;;;25.50;50.50;;;;;;5024539;28;20385;-66
2021/07/04 03:34:30;;;;;;;2.95;2.60;;;25.50;50.60;;;;;;5024092;28;20398;-65
2021/07/04 03:36:56;;;;;;;2.80;2.40;;;25.40;50.60;;;;;;5024815;28;20747;-65
2021/07/04 03:39:21;;;;;;;3.50;2.70;;;25.40;50.70;;;;;;5022924;28;20406;-66
2021/07/04 03:41:47;;;;;;;2.83;2.53;;;25.40;50.60;;;;;;5024322;28;20417;-65
2021/07/04 03:44:13;;;;;;;3.10;2.58;;;25.50;50.60;;;;;;5023578;28;21421;-66
2021/07/04 03:46:39;;;;;;;3.47;2.60;;;25.50;50.70;;;;;;5023105;28;20391;-67
2021/07/04 03:49:05;;;;;;;2.92;2.60;;;25.40;50.60;;;;;;5024173;28;20502;-66
2021/07/04 03:51:31;;;;;;;2.90;2.60;;;25.40;50.70;;;;;;5024131;28;20997;-65
2021/07/04 03:53:56;;;;;;;3.03;2.70;;;25.40;51.20;;;;;;5022766;28;20725;-66
2021/07/04 03:56:22;;;;;;;2.73;2.40;;;25.40;50.50;;;;;;5022679;28;20427;-66
2021/07/04 03:58:48;;;;;;;3.70;2.60;;;25.50;50.50;;;;;;5024179;28;20482;-66
2021/07/04 04:01:19;;;;;;;2.80;2.50;;;25.50;50.50;;;;;;5023934;28;20394;-65
2021/07/04 04:03:48;;;;;;;3.03;2.72;;;25.50;50.50;;;;;;5023995;28;20536;-65
2021/07/04 04:06:15;;;;;;;2.88;2.42;;;25.40;50.50;;;;;;5023433;28;20395;-65
2021/07/04 04:08:42;;;;;;;3.10;2.80;;;25.50;50.60;;;;;;5023916;28;20410;-67
2021/07/04 04:11:08;;;;;;;3.22;2.80;;;25.40;50.50;;;;;;5024431;28;20384;-66
2021/07/04 04:13:34;;;;;;;2.80;2.50;;;25.40;50.60;;;;;;5024127;28;20441;-65
2021/07/04 04:16:00;;;;;;;3.13;2.60;;;25.40;50.60;;;;;;5024138;28;20383;-65
2021/07/04 04:18:27;;;;;;;3.00;2.50;;;25.40;50.50;;;;;;5021891;28;20478;-65
2021/07/04 04:20:52;;;;;;;3.10;2.40;;;25.40;50.50;;;;;;5023678;28;20402;-65
2021/07/04 04:23:18;;;;;;;3.00;2.60;;;25.40;50.50;;;;;;5023702;28;20539;-65
2021/07/04 04:25:43;;;;;;;2.95;2.40;;;25.40;50.60;;;;;;5038701;28;20403;-66
2021/07/04 04:28:09;;;;;;;2.93;2.43;;;25.40;50.70;;;;;;5023460;28;20406;-65
2021/07/04 04:30:36;;;;;;;2.80;2.50;;;25.40;50.70;;;;;;5023032;28;20400;-66
2021/07/04 04:33:02;;;;;;;2.67;2.40;;;25.40;50.60;;;;;;5023322;28;20756;-65
2021/07/04 04:35:28;;;;;;;2.65;2.30;;;25.40;50.70;;;;;;5023388;28;20977;-65
2021/07/04 04:37:54;;;;;;;2.80;2.40;;;25.40;50.60;;;;;;5023245;28;20537;-65
2021/07/04 04:40:20;;;;;;;3.10;2.60;;;25.40;50.70;;;;;;5023265;28;20488;-65
2021/07/04 04:42:46;;;;;;;3.00;2.70;;;25.40;50.60;;;;;;5023247;28;20455;-65
2021/07/04 04:45:12;;;;;;;2.83;2.43;;;25.40;50.60;;;;;;5023745;28;20606;-65
2021/07/04 04:47:38;;;;;;;3.10;2.40;;;25.40;50.70;;;;;;5023067;28;20801;-66
2021/07/04 04:50:05;;;;;;;2.58;2.30;;;25.40;50.60;;;;;;5023418;28;20399;-65
2021/07/04 04:52:31;;;;;;;2.85;2.55;;;25.40;50.70;;;;;;5022581;28;20898;-66
2021/07/04 04:54:57;;;;;;;3.07;2.63;;;25.40;50.60;;;;;;5022346;28;20403;-67
2021/07/04 04:57:22;;;;;;;2.97;2.50;;;25.40;50.60;;;;;;5023442;28;20394;-65
2021/07/04 04:59:48;;;;;;;2.90;2.30;;;25.40;50.50;;;;;;5022868;28;20399;-64
2021/07/04 05:02:14;;;;;;;2.88;2.58;;;25.40;50.50;;;;;;5022696;28;20867;-66
2021/07/04 05:04:39;;;;;;;2.90;2.58;;;25.40;50.50;;;;;;5021954;28;20423;-65
2021/07/04 05:07:07;;;;;;;3.63;2.90;;;25.40;50.70;;;;;;5023114;28;20398;-66
2021/07/04 05:09:32;;;;;;;3.80;3.03;;;25.40;50.70;;;;;;5021299;28;20406;-66
2021/07/04 05:11:58;;;;;;;4.60;3.37;;;25.30;50.80;;;;;;5022552;28;20580;-66
2021/07/04 05:14:24;;;;;;;4.75;3.40;;;25.30;51.30;;;;;;5021095;28;20410;-66
2021/07/04 05:16:49;;;;;;;4.07;2.73;;;25.30;51.30;;;;;;5021147;28;20406;-65
2021/07/04 05:19:15;;;;;;;5.32;3.53;;;25.20;51.20;;;;;;5022768;28;20395;-64
2021/07/04 05:21:41;;;;;;;4.93;3.40;;;25.30;51.80;;;;;;5022571;28;20429;-65
2021/07/04 05:24:08;;;;;;;6.53;3.83;;;25.30;51.80;;;;;;5022972;28;20493;-64
2021/07/04 05:26:34;;;;;;;5.03;4.00;;;25.20;52.10;;;;;;5022157;28;20383;-65
2021/07/04 05:29:00;;;;;;;4.72;3.47;;;25.20;52.30;;;;;;5021536;28;20417;-66
2021/07/04 05:31:27;;;;;;;5.70;3.97;;;25.20;52.60;;;;;;5021250;28;20395;-65
2021/07/04 05:33:52;;;;;;;4.60;3.93;;;25.20;52.90;;;;;;5022505;28;20479;-65
2021/07/04 05:36:18;;;;;;;5.07;4.10;;;25.20;52.80;;;;;;5022125;28;20391;-65
2021/07/04 05:38:44;;;;;;;5.47;3.60;;;25.30;53.10;;;;;;5020317;28;20401;-68
2021/07/04 05:41:12;;;;;;;5.68;4.38;;;25.20;53.40;;;;;;5021285;28;20381;-65
2021/07/04 05:43:40;;;;;;;5.20;3.90;;;25.20;52.80;;;;;;5022359;28;20427;-65
2021/07/04 05:46:06;;;;;;;5.72;3.92;;;25.20;53.40;;;;;;5022439;28;20436;-66
2021/07/04 05:48:31;;;;;;;5.63;4.38;;;25.30;53.40;;;;;;5022220;28;20886;-65
2021/07/04 05:50:57;;;;;;;7.55;4.85;;;25.20;53.20;;;;;;5021331;28;20391;-65
2021/07/04 05:53:23;;;;;;;6.77;4.70;;;25.20;53.30;;;;;;5022353;28;20408;-65
2021/07/04 05:55:49;;;;;;;6.20;4.40;;;25.20;53.80;;;;;;5022561;28;20456;-65
2021/07/04 05:58:15;;;;;;;8.70;4.20;;;25.20;54.20;;;;;;5021312;28;20399;-65
2021/07/04 06:00:40;;;;;;;11.50;4.10;;;25.20;55.20;;;;;;5021471;28;20779;-66
2021/07/04 06:03:06;;;;;;;5.38;4.22;;;25.20;55.50;;;;;;5021453;28;20414;-65
2021/07/04 06:05:32;;;;;;;5.57;4.07;;;25.20;56.20;;;;;;5021981;28;20434;-65
2021/07/04 06:07:58;;;;;;;5.53;4.15;;;25.20;56.10;;;;;;5024011;28;20402;-65
2021/07/04 06:10:24;;;;;;;5.93;4.03;;;25.20;56.30;;;;;;5025363;28;20399;-66
2021/07/04 06:12:49;;;;;;;6.00;4.32;;;25.20;56.60;;;;;;5026321;28;20386;-65
2021/07/04 06:15:15;;;;;;;6.53;4.30;;;25.20;57.00;;;;;;5025978;28;20953;-65
2021/07/04 06:17:42;;;;;;;5.32;4.30;;;25.20;57.30;;;;;;5025899;28;20500;-65
2021/07/04 06:20:10;;;;;;;4.70;4.13;;;25.20;56.80;;;;;;5025575;28;20422;-65
2021/07/04 06:22:36;;;;;;;6.05;4.47;;;25.20;56.10;;;;;;5025577;28;20387;-65
2021/07/04 06:25:08;;;;;;;7.65;3.90;;;25.20;57.00;;;;;;5026219;28;20755;-65
2021/07/04 06:27:34;;;;;;;5.95;4.10;;;25.30;56.10;;;;;;5025867;28;20521;-65
2021/07/04 06:29:59;;;;;;;7.50;4.17;;;25.40;56.20;;;;;;5025399;28;20482;-65
2021/07/04 06:32:25;;;;;;;8.60;4.05;;;25.40;56.40;;;;;;5025329;28;20394;-65
2021/07/04 06:34:51;;;;;;;5.53;3.90;;;25.40;56.60;;;;;;5025510;28;20399;-65
2021/07/04 06:37:16;;;;;;;6.63;3.90;;;25.30;56.10;;;;;;5024305;28;20456;-65
2021/07/04 06:39:42;;;;;;;5.68;4.05;;;25.30;55.90;;;;;;5025602;28;20778;-66
2021/07/04 06:42:09;;;;;;;5.55;3.83;;;25.30;56.10;;;;;;5025572;28;20440;-65
2021/07/04 06:44:37;;;;;;;6.38;3.83;;;25.30;56.20;;;;;;5024224;28;20440;-66
2021/07/04 06:47:03;;;;;;;4.72;4.05;;;25.30;55.80;;;;;;5025652;28;20431;-66
2021/07/04 06:49:29;;;;;;;4.85;3.67;;;25.30;55.80;;;;;;5025038;28;20403;-65
2021/07/04 06:51:54;;;;;;;7.47;4.20;;;25.40;55.50;;;;;;5025505;28;20406;-65
2021/07/04 06:54:20;;;;;;;6.70;4.20;;;25.30;55.20;;;;;;5025089;28;20912;-65
2021/07/04 06:56:46;;;;;;;6.93;3.97;;;25.50;54.60;;;;;;5023984;28;20450;-65
2021/07/04 06:59:11;;;;;;;5.88;3.70;;;25.50;54.40;;;;;;5025030;28;20399;-65
2021/07/04 07:01:37;;;;;;;5.17;3.57;;;25.50;53.90;;;;;;5023790;28;20399;-67
2021/07/04 07:04:03;;;;;;;6.03;3.50;;;25.50;53.70;;;;;;5024815;28;20505;-65
2021/07/04 07:06:29;;;;;;;5.03;3.33;;;25.50;53.70;;;;;;5024596;28;20497;-66
2021/07/04 07:08:54;;;;;;;5.18;3.95;;;25.50;53.30;;;;;;5024911;28;20766;-66
2021/07/04 07:11:20;;;;;;;5.00;3.93;;;25.60;53.40;;;;;;5025330;28;20387;-65
2021/07/04 07:13:45;;;;;;;6.53;3.72;;;25.60;53.40;;;;;;5024326;28;20391;-67
2021/07/04 07:16:11;;;;;;;5.30;3.60;;;25.60;53.30;;;;;;5025050;28;20790;-66
2021/07/04 07:18:37;;;;;;;5.53;3.10;;;25.60;53.30;;;;;;5023993;28;20398;-65
2021/07/04 07:21:03;;;;;;;4.05;3.50;;;25.60;53.10;;;;;;5024447;28;20422;-65
2021/07/04 07:23:29;;;;;;;4.50;3.33;;;25.60;53.10;;;;;;5024686;28;20419;-65
2021/07/04 07:25:56;;;;;;;4.00;3.30;;;25.60;52.90;;;;;;5024946;28;20778;-65
2021/07/04 07:28:22;;;;;;;3.85;3.20;;;25.60;52.70;;;;;;5024655;28;20399;-65
2021/07/04 07:30:47;;;;;;;4.35;3.45;;;25.60;52.70;;;;;;5024879;28;20810;-65
2021/07/04 07:33:13;;;;;;;5.60;3.50;;;25.70;52.70;;;;;;5024742;28;20403;-66
2021/07/04 07:35:39;;;;;;;4.30;3.38;;;25.60;52.60;;;;;;5024470;28;20867;-66
2021/07/04 07:38:05;;;;;;;4.05;3.40;;;25.60;52.70;;;;;;5039406;28;20769;-66
2021/07/04 07:40:35;;;;;;;3.60;3.03;;;25.60;52.60;;;;;;5022795;28;20457;-66
2021/07/04 07:43:05;;;;;;;3.90;3.30;;;25.60;52.60;;;;;;5024966;28;20415;-65
2021/07/04 07:45:31;;;;;;;4.32;3.30;;;25.60;52.60;;;;;;5024706;28;20923;-65
2021/07/04 07:47:56;;;;;;;3.60;3.03;;;25.60;52.50;;;;;;5024311;28;20412;-66
2021/07/04 07:50:22;;;;;;;4.07;3.10;;;25.60;52.50;;;;;;5023932;28;20434;-65
2021/07/04 07:52:48;;;;;;;3.38;2.92;;;25.60;52.60;;;;;;5023803;28;20445;-66
2021/07/04 07:55:14;;;;;;;4.20;3.50;;;25.60;52.50;;;;;;5023010;28;20408;-66
2021/07/04 07:57:40;;;;;;;3.60;3.30;;;25.60;52.30;;;;;;5024313;28;20422;-66
2021/07/04 08:00:09;;;;;;;3.80;3.10;;;25.60;52.20;;;;;;5023825;28;20901;-66
2021/07/04 08:02:34;;;;;;;4.28;3.17;;;25.60;52.20;;;;;;5022694;28;20545;-66
2021/07/04 08:05:00;;;;;;;4.07;3.40;;;25.70;52.30;;;;;;5023442;28;20950;-66
2021/07/04 08:07:26;;;;;;;3.77;3.20;;;25.70;52.20;;;;;;5023482;28;21170;-66
2021/07/04 08:09:51;;;;;;;3.83;2.97;;;25.60;52.10;;;;;;5023467;28;20415;-66
2021/07/04 08:12:17;;;;;;;4.03;3.20;;;25.70;52.10;;;;;;5021831;28;20481;-66
2021/07/04 08:14:43;;;;;;;3.63;2.88;;;25.70;52.00;;;;;;5023083;28;20399;-66
2021/07/04 08:17:09;;;;;;;3.80;3.07;;;25.70;51.90;;;;;;5022563;28;20383;-65
2021/07/04 08:19:35;;;;;;;3.95;3.20;;;25.80;51.90;;;;;;5023165;28;20427;-66
2021/07/04 08:22:01;;;;;;;3.20;2.87;;;25.80;51.80;;;;;;5022863;28;20450;-66
2021/07/04 08:24:27;;;;;;;3.63;3.13;;;25.80;51.70;;;;;;5023028;28;20602;-66
2021/07/04 08:26:54;;;;;;;3.92;3.20;;;25.80;51.60;;;;;;5022619;28;20427;-66
2021/07/04 08:29:21;;;;;;;3.67;3.07;;;25.90;51.60;;;;;;5022264;28;20438;-67
2021/07/04 08:31:47;;;;;;;3.75;3.13;;;25.90;51.50;;;;;;5022707;28;20804;-66
2021/07/04 08:34:13;;;;;;;3.80;3.07;;;25.90;52.00;;;;;;5023060;28;20379;-66
2021/07/04 08:36:38;;;;;;;3.90;3.25;;;25.90;51.40;;;;;;5022504;28;20752;-66
2021/07/04 08:39:05;;;;;;;5.03;3.20;;;25.90;51.30;;;;;;5022969;28;20395;-66
2021/07/04 08:41:31;;;;;;;4.03;3.05;;;25.90;51.30;;;;;;5020628;28;20962;-68
2021/07/04 08:44:02;;;;;;;4.33;3.23;;;26.00;51.30;;;;;;5021141;28;20891;-65
2021/07/04 08:46:28;;;;;;;3.53;3.20;;;26.00;51.10;;;;;;5020173;28;20383;-66
2021/07/04 08:48:53;;;;;;;4.43;2.95;;;26.00;51.10;;;;;;5020666;28;20776;-66
2021/07/04 08:51:19;;;;;;;5.33;3.30;;;26.00;51.00;;;;;;5020622;28;20452;-66
2021/07/04 08:53:45;;;;;;;3.30;2.97;;;26.00;51.00;;;;;;5020844;28;20633;-66
2021/07/04 08:56:10;;;;;;;3.53;2.88;;;26.00;51.00;;;;;;5020248;28;20505;-66
2021/07/04 08:58:37;;;;;;;4.07;3.17;;;26.00;50.90;;;;;;5020214;28;20482;-67
2021/07/04 09:01:20;;;;;;;3.38;2.90;;;26.00;50.90;;;;;;5020391;28;20386;-65
2021/07/04 09:03:48;;;;;;;3.50;3.00;;;26.10;50.90;;;;;;5021316;28;20453;-66
2021/07/04 09:06:35;;;;;;;4.17;3.10;;;26.10;50.80;;;;;;5021211;28;20490;-65
2021/07/04 09:09:16;;;;;;;4.70;2.75;;;26.10;50.70;;;;;;5021120;28;20388;-66
2021/07/04 09:11:54;;;;;;;5.82;3.30;;;26.10;50.60;;;;;;5020812;28;20387;-66
2021/07/04 09:14:28;;;;;;;4.63;3.50;;;26.10;50.60;;;;;;5021042;28;20395;-67
2021/07/04 09:16:54;;;;;;;4.53;3.30;;;26.10;50.50;;;;;;5021344;28;20429;-66
2021/07/04 09:19:19;;;;;;;4.25;3.58;;;26.10;50.30;;;;;;5020969;28;20412;-66
2021/07/04 09:21:55;;;;;;;5.65;3.95;;;26.10;50.30;;;;;;5021072;28;20410;-66
2021/07/04 09:24:23;;;;;;;4.53;3.70;;;26.20;50.30;;;;;;5020985;28;20426;-66
2021/07/04 09:26:49;;;;;;;5.45;3.58;;;26.20;50.30;;;;;;5020547;28;20409;-66
2021/07/04 09:29:15;;;;;;;4.77;3.47;;;26.20;50.30;;;;;;5020924;28;20399;-66
2021/07/04 09:31:40;;;;;;;5.85;3.45;;;26.20;50.30;;;;;;5020527;28;20759;-66
2021/07/04 09:34:09;;;;;;;4.05;3.15;;;26.20;50.30;;;;;;5020614;28;21250;-65
2021/07/04 09:36:36;;;;;;;3.90;3.20;;;26.20;50.20;;;;;;5020700;28;20419;-66
2021/07/04 09:39:17;;;;;;;4.30;3.40;;;26.20;50.20;;;;;;5019279;28;20403;-68
2021/07/04 09:42:10;;;;;;;5.18;3.20;;;26.30;50.30;;;;;;5022699;28;20755;-67
2021/07/04 09:44:38;;;;;;;4.65;3.30;;;26.40;50.00;;;;;;5024036;28;20980;-66
2021/07/04 09:47:14;;;;;;;5.28;3.03;;;26.40;50.00;;;;;;5024949;28;20466;-69
2021/07/04 09:49:40;;;;;;;4.32;2.70;;;26.40;49.90;;;;;;5024964;28;20399;-65
2021/07/04 09:52:20;;;;;;;5.20;3.08;;;26.40;49.90;;;;;;5025331;28;20409;-65
2021/07/04 09:54:54;;;;;;;4.10;2.92;;;26.40;49.90;;;;;;5024281;28;20390;-65
2021/07/04 09:57:20;;;;;;;5.00;3.30;;;26.50;49.80;;;;;;5024999;28;20390;-65
2021/07/04 09:59:46;;;;;;;5.77;3.10;;;26.50;49.90;;;;;;5024534;28;20875;-65
2021/07/04 10:02:16;;;;;;;7.97;3.10;;;26.50;50.10;;;;;;5025002;28;20445;-65
2021/07/04 10:04:42;;;;;;;7.07;2.83;;;26.50;50.10;;;;;;5023965;28;20445;-66
2021/07/04 10:07:08;;;;;;;5.70;3.30;;;26.50;50.00;;;;;;5024490;28;20529;-67
2021/07/04 10:09:34;;;;;;;6.23;3.00;;;26.50;49.90;;;;;;5024638;28;20481;-65
2021/07/04 10:12:00;;;;;;;9.48;3.38;;;26.60;49.80;;;;;;5024307;28;20728;-67
2021/07/04 10:14:27;;;;;;;4.00;3.58;;;26.60;49.90;;;;;;5024226;28;20395;-65
2021/07/04 10:16:53;;;;;;;5.90;3.38;;;26.60;49.80;;;;;;5024128;28;21044;-66
2021/07/04 10:19:23;;;;;;;5.72;3.30;;;26.60;49.70;;;;;;5024471;28;20435;-65
2021/07/04 10:21:56;;;;;;;5.45;3.38;;;26.70;49.80;;;;;;5023893;28;20411;-65
2021/07/04 10:24:22;;;;;;;5.25;3.30;;;26.60;49.60;;;;;;5024318;28;20427;-65
2021/07/04 10:26:49;;;;;;;4.05;3.35;;;26.70;49.70;;;;;;5023601;28;20391;-66
2021/07/04 10:29:18;;;;;;;5.22;3.10;;;26.70;49.60;;;;;;5024029;28;20418;-65
2021/07/04 10:31:45;;;;;;;3.53;3.10;;;26.70;49.80;;;;;;5022867;28;20442;-66
2021/07/04 10:34:15;;;;;;;3.65;3.20;;;26.70;49.60;;;;;;5023698;28;20442;-65
2021/07/04 10:37:01;;;;;;;4.70;3.15;;;26.70;49.60;;;;;;5024596;28;20379;-66
2021/07/04 10:39:29;;;;;;;4.20;3.20;;;26.70;49.50;;;;;;5025173;28;20775;-68
2021/07/04 10:42:04;;;;;;;3.47;3.17;;;26.70;49.50;;;;;;5024110;28;20387;-65
2021/07/04 10:44:42;;;;;;;3.75;3.30;;;26.80;49.50;;;;;;5023694;28;20458;-65
2021/07/04 10:47:21;;;;;;;4.97;3.30;;;26.80;49.50;;;;;;5023600;28;20386;-65
2021/07/04 10:49:50;;;;;;;5.03;3.30;;;26.80;49.50;;;;;;5023496;28;20902;-66
2021/07/04 10:52:21;;;;;;;4.95;3.58;;;26.80;50.10;;;;;;5023173;28;20391;-64
2021/07/04 10:54:51;;;;;;;7.60;3.75;;;26.80;50.20;;;;;;5022663;28;20391;-65
2021/07/04 10:57:52;;;;;;;6.38;3.30;;;26.90;50.20;;;;;;5023349;28;20552;-65
2021/07/04 11:00:23;;;;;;;6.85;3.65;;;26.90;50.50;;;;;;5023552;28;20399;-65
2021/07/04 11:03:20;;;;;;;4.03;3.43;;;27.00;49.60;;;;;;5022743;28;20419;-67
2021/07/04 11:05:47;;;;;;;5.95;3.42;;;27.00;49.60;;;;;;5022453;28;20418;-65
2021/07/04 11:08:24;;;;;;;5.15;3.40;;;27.10;49.40;;;;;;5023147;28;20901;-65
2021/07/04 11:10:49;;;;;;;4.87;3.60;;;27.10;49.10;;;;;;5021717;28;20431;-66
2021/07/04 11:13:15;;;;;;;4.75;3.22;;;27.20;49.30;;;;;;5039614;28;20506;-64
2021/07/04 11:15:43;;;;;;;5.07;3.30;;;27.20;49.30;;;;;;5023530;28;20427;-65
2021/07/04 11:18:09;;;;;;;5.03;3.47;;;27.20;49.00;;;;;;5023164;28;20405;-65
2021/07/04 11:20:38;;;;;;;5.32;3.40;;;27.10;49.20;;;;;;5022530;28;20759;-65
2021/07/04 11:23:25;;;;;;;6.43;3.55;;;27.00;49.20;;;;;;5022878;28;20415;-65
2021/07/04 11:25:56;;;;;;;4.78;3.40;;;27.00;49.60;;;;;;5022773;28;20402;-64
2021/07/04 11:28:33;;;;;;;4.95;3.40;;;26.90;49.70;;;;;;5039189;28;20770;-65
2021/07/04 11:30:59;;;;;;;4.15;3.40;;;26.80;49.70;;;;;;5021605;28;20395;-65
2021/07/04 11:33:43;;;;;;;4.30;3.10;;;26.80;49.80;;;;;;5023396;28;20426;-64
2021/07/04 11:36:09;;;;;;;5.22;3.20;;;26.70;49.80;;;;;;5022936;28;20411;-65
2021/07/04 11:38:43;;;;;;;4.17;3.20;;;26.70;49.90;;;;;;5022733;28;20391;-67
2021/07/04 11:41:12;;;;;;;3.92;2.92;;;26.70;50.00;;;;;;5022950;28;20413;-65
2021/07/04 11:43:41;;;;;;;4.78;3.13;;;26.60;50.10;;;;;;5022921;28;20433;-65
2021/07/04 11:46:10;;;;;;;4.00;3.25;;;26.60;50.10;;;;;;5022911;28;20387;-65
2021/07/04 11:48:46;;;;;;;3.90;3.15;;;26.60;50.20;;;;;;5022466;28;20839;-67
2021/07/04 11:51:21;;;;;;;4.15;3.50;;;26.60;50.30;;;;;;5022522;28;20891;-64
2021/07/04 11:53:48;;;;;;;3.75;3.20;;;26.60;50.50;;;;;;5022472;28;20391;-65
2021/07/04 11:56:14;;;;;;;4.20;3.17;;;26.60;50.60;;;;;;5022366;28;20422;-64
2021/07/04 11:58:40;;;;;;;4.68;3.00;;;26.60;50.70;;;;;;5022063;28;20426;-65
2021/07/04 12:01:23;;;;;;;4.07;2.80;;;26.60;50.80;;;;;;5022634;28;20433;-64
2021/07/04 12:03:56;;;;;;;3.95;3.33;;;26.60;51.20;;;;;;5022068;28;20430;-65
2021/07/04 12:06:23;;;;;;;4.80;3.22;;;26.60;50.90;;;;;;5022310;28;20395;-65
2021/07/04 12:09:03;;;;;;;4.82;3.05;;;26.60;51.10;;;;;;5021887;28;20391;-65
2021/07/04 12:11:50;;;;;;;4.50;3.40;;;26.60;51.10;;;;;;5022054;28;20408;-65
2021/07/04 12:14:35;;;;;;;8.27;7.38;;;26.60;51.00;;;;;;5021676;28;20406;-65
2021/07/04 12:17:27;;;;;;;5.60;5.10;;;26.80;52.20;;;;;;5021191;28;20398;-65
2021/07/04 12:19:57;;;;;;;4.97;4.03;;;26.90;51.50;;;;;;5022694;28;20419;-66
2021/07/04 12:22:26;;;;;;;3.80;3.40;;;26.90;51.00;;;;;;5038562;28;20418;-67
2021/07/04 12:24:53;;;;;;;3.90;3.33;;;26.80;50.90;;;;;;5020558;28;20423;-65
2021/07/04 12:27:31;;;;;;;5.18;3.38;;;26.80;51.00;;;;;;5022549;28;20380;-64
2021/07/04 12:30:30;;;;;;;4.32;3.15;;;26.80;50.80;;;;;;5021178;28;20395;-65
2021/07/04 12:33:07;;;;;;;4.20;3.08;;;26.80;50.70;;;;;;5021802;28;20388;-65
2021/07/04 12:35:32;;;;;;;4.35;3.10;;;26.80;50.60;;;;;;5022500;28;20418;-65
2021/07/04 12:38:08;;;;;;;4.82;3.20;;;26.80;50.60;;;;;;5022918;28;20418;-65
2021/07/04 12:40:48;;;;;;;3.95;3.03;;;26.80;50.60;;;;;;5021346;28;20403;-65
2021/07/04 12:43:16;;;;;;;3.85;3.10;;;26.80;50.50;;;;;;5022541;28;20441;-65
2021/07/04 12:45:54;;;;;;;3.20;2.90;;;26.80;50.30;;;;;;5022741;28;20478;-66
2021/07/04 12:48:21;;;;;;;4.15;2.97;;;26.80;50.40;;;;;;5022972;28;20458;-64
2021/07/04 12:50:53;;;;;;;5.25;2.80;;;26.80;50.50;;;;;;5021952;28;20379;-64
2021/07/04 12:53:19;;;;;;;5.27;2.97;;;26.80;50.40;;;;;;5022789;28;20413;-65